Airport View

Enter AWOS ICAO identifier for current METAR.

ex. KFNL

KRCM 191300Z AUTO 23012G16KT 10SM SCT015 OVC021 13/12 A2967 RMK AO2

19 May 2019 12:30

Frequency: 119.575

Phone: 660-422-7010

Other Area AWOS: KSZL - KGLY - KLRY - KLXT

TAF KSZL 191100Z 1911/2017 30015G20KT 9999 SCT010 BKN060 QNH2954INS BECMG 1915/1916 30015G30KT 9999 SCT020 QNH2961INS BECMG 2000/2001 31009KT 9999 FEW050 QNH2987INS TX21/1920Z TN10/2011Z